sensor_id;sensor_type;location;lat;lon;timestamp;P1;durP1;ratioP1;P2;durP2;ratioP2
13445;SDS011;6795;51.232;3.764;2023-08-07T00:00:14;4.15;;;0.60;;
13445;SDS011;6795;51.232;3.764;2023-08-07T00:07:30;5.18;;;0.70;;
13445;SDS011;6795;51.232;3.764;2023-08-07T00:10:37;5.82;;;0.88;;
13445;SDS011;6795;51.232;3.764;2023-08-07T00:14:00;4.70;;;0.90;;
13445;SDS011;6795;51.232;3.764;2023-08-07T00:17:18;8.60;;;1.33;;
13445;SDS011;6795;51.232;3.764;2023-08-07T00:24:03;7.35;;;1.15;;
13445;SDS011;6795;51.232;3.764;2023-08-07T00:27:52;5.57;;;1.13;;
13445;SDS011;6795;51.232;3.764;2023-08-07T00:31:00;7.68;;;1.13;;
13445;SDS011;6795;51.232;3.764;2023-08-07T00:34:36;6.53;;;1.35;;
13445;SDS011;6795;51.232;3.764;2023-08-07T00:41:58;7.78;;;1.45;;
13445;SDS011;6795;51.232;3.764;2023-08-07T00:46:08;5.95;;;1.45;;
13445;SDS011;6795;51.232;3.764;2023-08-07T00:49:14;7.25;;;1.38;;
13445;SDS011;6795;51.232;3.764;2023-08-07T00:52:27;6.63;;;0.90;;
13445;SDS011;6795;51.232;3.764;2023-08-07T00:55:46;4.72;;;1.35;;
13445;SDS011;6795;51.232;3.764;2023-08-07T00:58:55;8.40;;;1.48;;
13445;SDS011;6795;51.232;3.764;2023-08-07T01:02:25;5.70;;;1.35;;
13445;SDS011;6795;51.232;3.764;2023-08-07T01:05:47;5.38;;;0.80;;
13445;SDS011;6795;51.232;3.764;2023-08-07T01:08:50;3.58;;;1.05;;
13445;SDS011;6795;51.232;3.764;2023-08-07T01:12:20;4.30;;;1.20;;
13445;SDS011;6795;51.232;3.764;2023-08-07T01:15:47;6.75;;;1.38;;
13445;SDS011;6795;51.232;3.764;2023-08-07T01:19:36;6.03;;;1.02;;
13445;SDS011;6795;51.232;3.764;2023-08-07T01:22:46;5.50;;;0.90;;
13445;SDS011;6795;51.232;3.764;2023-08-07T01:26:26;6.72;;;0.80;;
13445;SDS011;6795;51.232;3.764;2023-08-07T01:29:36;5.00;;;0.63;;
13445;SDS011;6795;51.232;3.764;2023-08-07T01:33:12;7.50;;;1.20;;
13445;SDS011;6795;51.232;3.764;2023-08-07T01:36:49;5.93;;;1.05;;
13445;SDS011;6795;51.232;3.764;2023-08-07T01:44:00;6.60;;;0.90;;
13445;SDS011;6795;51.232;3.764;2023-08-07T01:47:17;3.50;;;1.17;;
13445;SDS011;6795;51.232;3.764;2023-08-07T01:50:09;4.70;;;0.90;;
13445;SDS011;6795;51.232;3.764;2023-08-07T01:53:08;7.20;;;0.80;;
13445;SDS011;6795;51.232;3.764;2023-08-07T02:00:41;2.88;;;0.93;;
13445;SDS011;6795;51.232;3.764;2023-08-07T02:04:22;6.10;;;1.10;;
13445;SDS011;6795;51.232;3.764;2023-08-07T02:08:08;5.97;;;1.20;;
13445;SDS011;6795;51.232;3.764;2023-08-07T02:11:30;6.22;;;1.38;;
13445;SDS011;6795;51.232;3.764;2023-08-07T02:14:55;3.20;;;1.02;;
13445;SDS011;6795;51.232;3.764;2023-08-07T02:17:59;5.63;;;0.90;;
13445;SDS011;6795;51.232;3.764;2023-08-07T02:21:20;3.95;;;0.85;;
13445;SDS011;6795;51.232;3.764;2023-08-07T02:24:32;5.05;;;1.00;;
13445;SDS011;6795;51.232;3.764;2023-08-07T02:27:47;6.80;;;1.33;;
13445;SDS011;6795;51.232;3.764;2023-08-07T02:34:49;5.43;;;1.55;;
13445;SDS011;6795;51.232;3.764;2023-08-07T02:38:29;5.47;;;1.38;;
13445;SDS011;6795;51.232;3.764;2023-08-07T02:41:48;5.13;;;1.00;;
13445;SDS011;6795;51.232;3.764;2023-08-07T02:45:00;5.28;;;1.20;;
13445;SDS011;6795;51.232;3.764;2023-08-07T02:48:22;1.88;;;0.60;;
13445;SDS011;6795;51.232;3.764;2023-08-07T02:51:51;9.18;;;1.52;;
13445;SDS011;6795;51.232;3.764;2023-08-07T02:55:01;4.65;;;1.55;;
13445;SDS011;6795;51.232;3.764;2023-08-07T03:02:59;2.97;;;1.25;;
13445;SDS011;6795;51.232;3.764;2023-08-07T03:06:36;3.15;;;0.80;;
13445;SDS011;6795;51.232;3.764;2023-08-07T03:09:49;6.55;;;1.48;;
13445;SDS011;6795;51.232;3.764;2023-08-07T03:13:09;5.43;;;1.13;;
13445;SDS011;6795;51.232;3.764;2023-08-07T03:20:08;4.40;;;1.25;;
13445;SDS011;6795;51.232;3.764;2023-08-07T03:27:22;8.95;;;1.20;;
13445;SDS011;6795;51.232;3.764;2023-08-07T03:30:34;7.32;;;1.30;;
13445;SDS011;6795;51.232;3.764;2023-08-07T03:34:06;4.07;;;1.45;;
13445;SDS011;6795;51.232;3.764;2023-08-07T03:37:15;6.65;;;1.42;;
13445;SDS011;6795;51.232;3.764;2023-08-07T03:40:35;4.53;;;1.08;;
13445;SDS011;6795;51.232;3.764;2023-08-07T03:43:48;4.03;;;1.30;;
13445;SDS011;6795;51.232;3.764;2023-08-07T03:47:24;5.13;;;1.20;;
13445;SDS011;6795;51.232;3.764;2023-08-07T03:50:31;2.05;;;1.35;;
13445;SDS011;6795;51.232;3.764;2023-08-07T03:53:42;6.07;;;1.70;;
13445;SDS011;6795;51.232;3.764;2023-08-07T04:00:39;6.30;;;2.10;;
13445;SDS011;6795;51.232;3.764;2023-08-07T04:03:55;7.05;;;1.85;;
13445;SDS011;6795;51.232;3.764;2023-08-07T04:07:33;7.18;;;1.83;;
13445;SDS011;6795;51.232;3.764;2023-08-07T04:11:34;6.65;;;1.48;;
13445;SDS011;6795;51.232;3.764;2023-08-07T04:14:44;4.75;;;1.92;;
13445;SDS011;6795;51.232;3.764;2023-08-07T04:25:56;10.77;;;1.98;;
13445;SDS011;6795;51.232;3.764;2023-08-07T04:30:02;7.43;;;2.17;;
13445;SDS011;6795;51.232;3.764;2023-08-07T04:33:35;5.30;;;1.63;;
13445;SDS011;6795;51.232;3.764;2023-08-07T04:37:21;4.85;;;2.20;;
13445;SDS011;6795;51.232;3.764;2023-08-07T04:40:50;4.97;;;1.90;;
13445;SDS011;6795;51.232;3.764;2023-08-07T04:44:07;9.65;;;2.22;;
13445;SDS011;6795;51.232;3.764;2023-08-07T04:50:32;6.03;;;1.90;;
13445;SDS011;6795;51.232;3.764;2023-08-07T04:53:47;9.27;;;2.20;;
13445;SDS011;6795;51.232;3.764;2023-08-07T04:56:57;8.35;;;2.03;;
13445;SDS011;6795;51.232;3.764;2023-08-07T05:00:15;6.65;;;2.55;;
13445;SDS011;6795;51.232;3.764;2023-08-07T05:04:20;7.25;;;2.08;;
13445;SDS011;6795;51.232;3.764;2023-08-07T05:07:22;8.15;;;2.17;;
13445;SDS011;6795;51.232;3.764;2023-08-07T05:10:41;9.38;;;2.40;;
13445;SDS011;6795;51.232;3.764;2023-08-07T05:14:10;7.55;;;2.22;;
13445;SDS011;6795;51.232;3.764;2023-08-07T05:17:38;10.77;;;2.42;;
13445;SDS011;6795;51.232;3.764;2023-08-07T05:20:57;11.35;;;2.40;;
13445;SDS011;6795;51.232;3.764;2023-08-07T05:24:39;6.35;;;2.47;;
13445;SDS011;6795;51.232;3.764;2023-08-07T05:28:17;4.70;;;1.85;;
13445;SDS011;6795;51.232;3.764;2023-08-07T05:31:45;4.53;;;1.65;;
13445;SDS011;6795;51.232;3.764;2023-08-07T05:35:06;4.97;;;1.58;;
13445;SDS011;6795;51.232;3.764;2023-08-07T05:38:30;6.45;;;1.70;;
13445;SDS011;6795;51.232;3.764;2023-08-07T05:41:40;5.03;;;1.30;;
13445;SDS011;6795;51.232;3.764;2023-08-07T05:45:10;3.88;;;1.35;;
13445;SDS011;6795;51.232;3.764;2023-08-07T05:48:35;5.88;;;1.92;;
13445;SDS011;6795;51.232;3.764;2023-08-07T05:51:46;6.55;;;1.67;;
13445;SDS011;6795;51.232;3.764;2023-08-07T05:54:53;4.55;;;1.50;;
13445;SDS011;6795;51.232;3.764;2023-08-07T05:58:29;5.20;;;1.17;;
13445;SDS011;6795;51.232;3.764;2023-08-07T06:01:36;5.15;;;1.17;;
13445;SDS011;6795;51.232;3.764;2023-08-07T06:05:02;3.65;;;1.23;;
13445;SDS011;6795;51.232;3.764;2023-08-07T06:08:51;2.75;;;1.23;;
13445;SDS011;6795;51.232;3.764;2023-08-07T06:15:23;5.20;;;0.65;;
13445;SDS011;6795;51.232;3.764;2023-08-07T06:18:43;5.13;;;0.95;;
13445;SDS011;6795;51.232;3.764;2023-08-07T06:22:18;3.50;;;0.82;;
13445;SDS011;6795;51.232;3.764;2023-08-07T06:25:43;3.95;;;0.63;;
13445;SDS011;6795;51.232;3.764;2023-08-07T06:28:47;5.38;;;0.70;;
13445;SDS011;6795;51.232;3.764;2023-08-07T06:32:34;4.35;;;0.90;;
13445;SDS011;6795;51.232;3.764;2023-08-07T06:35:44;4.30;;;0.50;;
13445;SDS011;6795;51.232;3.764;2023-08-07T06:39:16;1.90;;;0.75;;
13445;SDS011;6795;51.232;3.764;2023-08-07T06:42:28;7.00;;;0.85;;
13445;SDS011;6795;51.232;3.764;2023-08-07T06:45:45;4.65;;;0.63;;
13445;SDS011;6795;51.232;3.764;2023-08-07T06:48:55;5.25;;;0.52;;
13445;SDS011;6795;51.232;3.764;2023-08-07T06:52:08;4.93;;;0.60;;
13445;SDS011;6795;51.232;3.764;2023-08-07T06:55:33;4.82;;;0.90;;
13445;SDS011;6795;51.232;3.764;2023-08-07T06:59:16;2.38;;;0.40;;
13445;SDS011;6795;51.232;3.764;2023-08-07T07:02:36;5.90;;;0.75;;
13445;SDS011;6795;51.232;3.764;2023-08-07T07:05:56;2.70;;;0.70;;
13445;SDS011;6795;51.232;3.764;2023-08-07T07:10:06;3.60;;;0.65;;
13445;SDS011;6795;51.232;3.764;2023-08-07T07:16:45;5.18;;;0.80;;
13445;SDS011;6795;51.232;3.764;2023-08-07T07:20:10;5.38;;;1.17;;
13445;SDS011;6795;51.232;3.764;2023-08-07T07:23:19;2.17;;;0.63;;
13445;SDS011;6795;51.232;3.764;2023-08-07T07:26:33;2.22;;;0.70;;
13445;SDS011;6795;51.232;3.764;2023-08-07T07:34:17;1.45;;;0.60;;
13445;SDS011;6795;51.232;3.764;2023-08-07T07:37:39;4.68;;;0.85;;
13445;SDS011;6795;51.232;3.764;2023-08-07T07:41:04;2.35;;;0.63;;
13445;SDS011;6795;51.232;3.764;2023-08-07T07:44:21;1.95;;;0.50;;
13445;SDS011;6795;51.232;3.764;2023-08-07T07:47:49;2.47;;;0.50;;
13445;SDS011;6795;51.232;3.764;2023-08-07T07:51:21;3.00;;;0.68;;
13445;SDS011;6795;51.232;3.764;2023-08-07T07:54:29;2.75;;;0.60;;
13445;SDS011;6795;51.232;3.764;2023-08-07T07:57:57;4.57;;;0.60;;
13445;SDS011;6795;51.232;3.764;2023-08-07T08:01:31;2.60;;;0.77;;
13445;SDS011;6795;51.232;3.764;2023-08-07T08:04:38;3.13;;;0.60;;
13445;SDS011;6795;51.232;3.764;2023-08-07T08:11:49;1.40;;;0.60;;
13445;SDS011;6795;51.232;3.764;2023-08-07T08:15:04;1.55;;;0.40;;
13445;SDS011;6795;51.232;3.764;2023-08-07T08:18:25;1.38;;;0.65;;
13445;SDS011;6795;51.232;3.764;2023-08-07T08:21:34;3.75;;;0.60;;
13445;SDS011;6795;51.232;3.764;2023-08-07T08:32:23;1.30;;;0.45;;
13445;SDS011;6795;51.232;3.764;2023-08-07T08:35:46;0.75;;;0.50;;
13445;SDS011;6795;51.232;3.764;2023-08-07T08:40:15;1.85;;;0.50;;
13445;SDS011;6795;51.232;3.764;2023-08-07T08:43:52;1.65;;;0.73;;
13445;SDS011;6795;51.232;3.764;2023-08-07T08:47:13;2.13;;;0.57;;
13445;SDS011;6795;51.232;3.764;2023-08-07T08:50:39;1.58;;;0.43;;
13445;SDS011;6795;51.232;3.764;2023-08-07T08:53:59;1.83;;;0.50;;
13445;SDS011;6795;51.232;3.764;2023-08-07T08:57:36;1.85;;;0.50;;
13445;SDS011;6795;51.232;3.764;2023-08-07T09:01:10;2.47;;;0.40;;
13445;SDS011;6795;51.232;3.764;2023-08-07T09:04:12;1.15;;;0.43;;
13445;SDS011;6795;51.232;3.764;2023-08-07T09:07:25;4.28;;;0.80;;
13445;SDS011;6795;51.232;3.764;2023-08-07T09:11:10;3.85;;;0.70;;
13445;SDS011;6795;51.232;3.764;2023-08-07T09:14:33;0.73;;;0.50;;
13445;SDS011;6795;51.232;3.764;2023-08-07T09:18:05;1.27;;;0.50;;
13445;SDS011;6795;51.232;3.764;2023-08-07T09:21:23;2.30;;;0.55;;
13445;SDS011;6795;51.232;3.764;2023-08-07T09:25:01;0.55;;;0.40;;
13445;SDS011;6795;51.232;3.764;2023-08-07T09:28:04;1.85;;;0.43;;
13445;SDS011;6795;51.232;3.764;2023-08-07T09:35:23;0.80;;;0.47;;
13445;SDS011;6795;51.232;3.764;2023-08-07T09:38:19;3.33;;;0.60;;
13445;SDS011;6795;51.232;3.764;2023-08-07T09:41:52;1.38;;;0.50;;
13445;SDS011;6795;51.232;3.764;2023-08-07T09:44:53;2.30;;;0.50;;
13445;SDS011;6795;51.232;3.764;2023-08-07T09:55:16;1.20;;;0.50;;
13445;SDS011;6795;51.232;3.764;2023-08-07T09:58:47;2.47;;;0.50;;
13445;SDS011;6795;51.232;3.764;2023-08-07T10:02:08;1.17;;;0.50;;
13445;SDS011;6795;51.232;3.764;2023-08-07T10:05:34;1.48;;;0.50;;
13445;SDS011;6795;51.232;3.764;2023-08-07T10:12:47;1.33;;;0.45;;
13445;SDS011;6795;51.232;3.764;2023-08-07T10:16:04;0.80;;;0.30;;
13445;SDS011;6795;51.232;3.764;2023-08-07T10:19:30;1.15;;;0.57;;
13445;SDS011;6795;51.232;3.764;2023-08-07T10:27:02;2.30;;;0.52;;
13445;SDS011;6795;51.232;3.764;2023-08-07T10:30:14;6.75;;;0.60;;
13445;SDS011;6795;51.232;3.764;2023-08-07T10:33:25;2.28;;;0.60;;
13445;SDS011;6795;51.232;3.764;2023-08-07T10:36:55;0.90;;;0.40;;
13445;SDS011;6795;51.232;3.764;2023-08-07T10:40:32;1.27;;;0.40;;
13445;SDS011;6795;51.232;3.764;2023-08-07T10:44:04;0.77;;;0.60;;
13445;SDS011;6795;51.232;3.764;2023-08-07T10:55:14;1.77;;;0.50;;
13445;SDS011;6795;51.232;3.764;2023-08-07T10:58:26;0.95;;;0.52;;
13445;SDS011;6795;51.232;3.764;2023-08-07T11:01:40;3.05;;;0.88;;
13445;SDS011;6795;51.232;3.764;2023-08-07T11:05:08;1.25;;;0.40;;
13445;SDS011;6795;51.232;3.764;2023-08-07T11:12:23;6.70;;;0.52;;
13445;SDS011;6795;51.232;3.764;2023-08-07T11:15:40;0.50;;;0.40;;
13445;SDS011;6795;51.232;3.764;2023-08-07T11:23:03;0.52;;;0.43;;
13445;SDS011;6795;51.232;3.764;2023-08-07T11:30:49;1.17;;;0.40;;
13445;SDS011;6795;51.232;3.764;2023-08-07T11:33:44;3.35;;;0.50;;
13445;SDS011;6795;51.232;3.764;2023-08-07T11:37:17;3.33;;;0.50;;
13445;SDS011;6795;51.232;3.764;2023-08-07T11:40:34;0.77;;;0.45;;
13445;SDS011;6795;51.232;3.764;2023-08-07T11:43:43;3.33;;;0.40;;
13445;SDS011;6795;51.232;3.764;2023-08-07T11:47:24;1.23;;;0.50;;
13445;SDS011;6795;51.232;3.764;2023-08-07T11:50:46;0.43;;;0.30;;
13445;SDS011;6795;51.232;3.764;2023-08-07T11:54:32;1.27;;;0.30;;
13445;SDS011;6795;51.232;3.764;2023-08-07T11:57:50;1.00;;;0.30;;
13445;SDS011;6795;51.232;3.764;2023-08-07T12:05:44;1.02;;;0.40;;
13445;SDS011;6795;51.232;3.764;2023-08-07T12:09:03;2.40;;;0.30;;
13445;SDS011;6795;51.232;3.764;2023-08-07T12:12:35;0.88;;;0.47;;
13445;SDS011;6795;51.232;3.764;2023-08-07T12:16:18;0.30;;;0.30;;
13445;SDS011;6795;51.232;3.764;2023-08-07T12:20:26;0.32;;;0.30;;
13445;SDS011;6795;51.232;3.764;2023-08-07T12:23:56;0.82;;;0.43;;
13445;SDS011;6795;51.232;3.764;2023-08-07T12:27:13;2.10;;;0.38;;
13445;SDS011;6795;51.232;3.764;2023-08-07T12:30:56;1.08;;;0.20;;
13445;SDS011;6795;51.232;3.764;2023-08-07T12:35:00;0.65;;;0.40;;
13445;SDS011;6795;51.232;3.764;2023-08-07T12:38:43;2.17;;;0.30;;
13445;SDS011;6795;51.232;3.764;2023-08-07T12:42:16;0.30;;;0.30;;
13445;SDS011;6795;51.232;3.764;2023-08-07T12:45:35;2.40;;;0.30;;
13445;SDS011;6795;51.232;3.764;2023-08-07T12:49:14;1.33;;;0.30;;
13445;SDS011;6795;51.232;3.764;2023-08-07T12:52:16;1.77;;;0.25;;
13445;SDS011;6795;51.232;3.764;2023-08-07T12:55:28;2.15;;;0.25;;
13445;SDS011;6795;51.232;3.764;2023-08-07T12:58:43;5.32;;;0.40;;
13445;SDS011;6795;51.232;3.764;2023-08-07T13:02:13;2.92;;;0.30;;
13445;SDS011;6795;51.232;3.764;2023-08-07T13:05:38;0.98;;;0.30;;
13445;SDS011;6795;51.232;3.764;2023-08-07T13:09:14;0.47;;;0.20;;
13445;SDS011;6795;51.232;3.764;2023-08-07T13:20:11;1.52;;;0.25;;
13445;SDS011;6795;51.232;3.764;2023-08-07T13:23:25;2.72;;;0.40;;
13445;SDS011;6795;51.232;3.764;2023-08-07T13:27:35;1.05;;;0.30;;
13445;SDS011;6795;51.232;3.764;2023-08-07T13:30:55;1.00;;;0.28;;
13445;SDS011;6795;51.232;3.764;2023-08-07T13:34:41;1.42;;;0.30;;
13445;SDS011;6795;51.232;3.764;2023-08-07T13:37:54;1.48;;;0.22;;
13445;SDS011;6795;51.232;3.764;2023-08-07T13:41:32;3.25;;;0.30;;
13445;SDS011;6795;51.232;3.764;2023-08-07T13:44:59;1.65;;;0.40;;
13445;SDS011;6795;51.232;3.764;2023-08-07T13:59:41;1.65;;;0.20;;
13445;SDS011;6795;51.232;3.764;2023-08-07T14:03:00;1.55;;;0.20;;
13445;SDS011;6795;51.232;3.764;2023-08-07T14:06:28;0.95;;;0.30;;
13445;SDS011;6795;51.232;3.764;2023-08-07T14:09:46;1.00;;;0.20;;
13445;SDS011;6795;51.232;3.764;2023-08-07T14:20:34;1.33;;;0.40;;
13445;SDS011;6795;51.232;3.764;2023-08-07T14:23:51;0.32;;;0.30;;
13445;SDS011;6795;51.232;3.764;2023-08-07T14:27:37;0.38;;;0.22;;
13445;SDS011;6795;51.232;3.764;2023-08-07T14:30:58;4.78;;;0.30;;
13445;SDS011;6795;51.232;3.764;2023-08-07T14:38:06;2.28;;;0.30;;
13445;SDS011;6795;51.232;3.764;2023-08-07T14:42:05;1.70;;;0.25;;
13445;SDS011;6795;51.232;3.764;2023-08-07T14:46:19;0.57;;;0.30;;
13445;SDS011;6795;51.232;3.764;2023-08-07T14:48:54;3.80;;;0.40;;
13445;SDS011;6795;51.232;3.764;2023-08-07T14:52:17;3.80;;;0.30;;
13445;SDS011;6795;51.232;3.764;2023-08-07T14:58:44;0.32;;;0.30;;
13445;SDS011;6795;51.232;3.764;2023-08-07T15:02:13;1.73;;;0.30;;
13445;SDS011;6795;51.232;3.764;2023-08-07T15:05:25;0.40;;;0.20;;
13445;SDS011;6795;51.232;3.764;2023-08-07T15:08:50;0.57;;;0.20;;
13445;SDS011;6795;51.232;3.764;2023-08-07T15:15:41;0.35;;;0.20;;
13445;SDS011;6795;51.232;3.764;2023-08-07T15:18:42;1.17;;;0.32;;
13445;SDS011;6795;51.232;3.764;2023-08-07T15:21:59;0.47;;;0.20;;
13445;SDS011;6795;51.232;3.764;2023-08-07T15:25:08;0.95;;;0.35;;
13445;SDS011;6795;51.232;3.764;2023-08-07T15:32:31;0.43;;;0.20;;
13445;SDS011;6795;51.232;3.764;2023-08-07T15:35:48;2.45;;;0.30;;
13445;SDS011;6795;51.232;3.764;2023-08-07T15:39:12;0.95;;;0.30;;
13445;SDS011;6795;51.232;3.764;2023-08-07T15:42:42;1.55;;;0.50;;
13445;SDS011;6795;51.232;3.764;2023-08-07T15:46:14;1.33;;;0.35;;
13445;SDS011;6795;51.232;3.764;2023-08-07T15:49:49;2.33;;;0.30;;
13445;SDS011;6795;51.232;3.764;2023-08-07T15:53:05;0.50;;;0.30;;
13445;SDS011;6795;51.232;3.764;2023-08-07T15:56:23;0.82;;;0.30;;
13445;SDS011;6795;51.232;3.764;2023-08-07T15:59:31;1.10;;;0.30;;
13445;SDS011;6795;51.232;3.764;2023-08-07T16:02:54;2.67;;;0.30;;
13445;SDS011;6795;51.232;3.764;2023-08-07T16:06:25;0.43;;;0.30;;
13445;SDS011;6795;51.232;3.764;2023-08-07T16:09:55;1.40;;;0.35;;
13445;SDS011;6795;51.232;3.764;2023-08-07T16:13:07;3.03;;;0.40;;
13445;SDS011;6795;51.232;3.764;2023-08-07T16:16:16;1.85;;;0.50;;
13445;SDS011;6795;51.232;3.764;2023-08-07T16:23:14;2.70;;;0.50;;
13445;SDS011;6795;51.232;3.764;2023-08-07T16:26:24;1.00;;;0.30;;
13445;SDS011;6795;51.232;3.764;2023-08-07T16:29:44;2.33;;;0.35;;
13445;SDS011;6795;51.232;3.764;2023-08-07T16:33:17;2.33;;;0.40;;
13445;SDS011;6795;51.232;3.764;2023-08-07T16:36:28;1.20;;;0.35;;
13445;SDS011;6795;51.232;3.764;2023-08-07T16:39:43;2.15;;;0.40;;
13445;SDS011;6795;51.232;3.764;2023-08-07T16:42:41;1.17;;;0.32;;
13445;SDS011;6795;51.232;3.764;2023-08-07T16:45:59;1.48;;;0.32;;
13445;SDS011;6795;51.232;3.764;2023-08-07T16:49:21;0.47;;;0.20;;
13445;SDS011;6795;51.232;3.764;2023-08-07T16:52:34;1.10;;;0.30;;
13445;SDS011;6795;51.232;3.764;2023-08-07T16:55:57;1.70;;;0.30;;
13445;SDS011;6795;51.232;3.764;2023-08-07T16:59:48;0.57;;;0.30;;
13445;SDS011;6795;51.232;3.764;2023-08-07T17:03:23;0.93;;;0.30;;
13445;SDS011;6795;51.232;3.764;2023-08-07T17:06:45;2.38;;;0.30;;
13445;SDS011;6795;51.232;3.764;2023-08-07T17:09:53;0.65;;;0.40;;
13445;SDS011;6795;51.232;3.764;2023-08-07T17:13:21;2.05;;;0.38;;
13445;SDS011;6795;51.232;3.764;2023-08-07T17:16:36;0.30;;;0.30;;
13445;SDS011;6795;51.232;3.764;2023-08-07T17:19:57;2.03;;;0.30;;
13445;SDS011;6795;51.232;3.764;2023-08-07T17:23:39;2.63;;;0.60;;
13445;SDS011;6795;51.232;3.764;2023-08-07T17:27:03;1.75;;;0.30;;
13445;SDS011;6795;51.232;3.764;2023-08-07T17:35:53;0.80;;;0.30;;
13445;SDS011;6795;51.232;3.764;2023-08-07T17:37:21;0.93;;;0.38;;
13445;SDS011;6795;51.232;3.764;2023-08-07T17:40:31;1.75;;;0.47;;
13445;SDS011;6795;51.232;3.764;2023-08-07T17:43:31;1.02;;;0.30;;
13445;SDS011;6795;51.232;3.764;2023-08-07T17:47:20;1.20;;;0.40;;
13445;SDS011;6795;51.232;3.764;2023-08-07T17:50:30;2.67;;;0.43;;
13445;SDS011;6795;51.232;3.764;2023-08-07T17:53:54;0.88;;;0.32;;
13445;SDS011;6795;51.232;3.764;2023-08-07T17:57:22;2.40;;;0.40;;
13445;SDS011;6795;51.232;3.764;2023-08-07T18:00:38;4.28;;;0.50;;
13445;SDS011;6795;51.232;3.764;2023-08-07T18:04:00;2.50;;;0.50;;
13445;SDS011;6795;51.232;3.764;2023-08-07T18:07:34;5.53;;;0.45;;
13445;SDS011;6795;51.232;3.764;2023-08-07T18:10:53;0.47;;;0.30;;
13445;SDS011;6795;51.232;3.764;2023-08-07T18:14:36;1.25;;;0.40;;
13445;SDS011;6795;51.232;3.764;2023-08-07T18:17:38;2.65;;;0.40;;
13445;SDS011;6795;51.232;3.764;2023-08-07T18:21:11;2.72;;;0.40;;
13445;SDS011;6795;51.232;3.764;2023-08-07T18:27:53;0.30;;;0.30;;
13445;SDS011;6795;51.232;3.764;2023-08-07T18:30:59;2.17;;;0.47;;
13445;SDS011;6795;51.232;3.764;2023-08-07T18:34:20;1.75;;;0.38;;
13445;SDS011;6795;51.232;3.764;2023-08-07T18:41:36;2.05;;;0.40;;
13445;SDS011;6795;51.232;3.764;2023-08-07T18:45:18;2.53;;;0.50;;
13445;SDS011;6795;51.232;3.764;2023-08-07T18:51:38;1.00;;;0.60;;
13445;SDS011;6795;51.232;3.764;2023-08-07T18:54:54;6.35;;;0.55;;
13445;SDS011;6795;51.232;3.764;2023-08-07T18:58:11;5.03;;;1.10;;
13445;SDS011;6795;51.232;3.764;2023-08-07T19:01:20;3.40;;;0.60;;
13445;SDS011;6795;51.232;3.764;2023-08-07T19:04:37;3.53;;;0.70;;
13445;SDS011;6795;51.232;3.764;2023-08-07T19:08:03;3.75;;;0.50;;
13445;SDS011;6795;51.232;3.764;2023-08-07T19:11:23;1.77;;;0.40;;
13445;SDS011;6795;51.232;3.764;2023-08-07T19:14:50;2.40;;;0.70;;
13445;SDS011;6795;51.232;3.764;2023-08-07T19:18:02;3.58;;;0.60;;
13445;SDS011;6795;51.232;3.764;2023-08-07T19:21:09;1.20;;;0.45;;
13445;SDS011;6795;51.232;3.764;2023-08-07T19:25:15;2.20;;;0.77;;
13445;SDS011;6795;51.232;3.764;2023-08-07T19:32:31;1.80;;;0.85;;
13445;SDS011;6795;51.232;3.764;2023-08-07T19:39:49;5.30;;;1.95;;
13445;SDS011;6795;51.232;3.764;2023-08-07T19:43:29;3.67;;;1.48;;
13445;SDS011;6795;51.232;3.764;2023-08-07T19:47:08;3.08;;;1.30;;
13445;SDS011;6795;51.232;3.764;2023-08-07T19:53:45;1.73;;;1.15;;
13445;SDS011;6795;51.232;3.764;2023-08-07T19:57:08;4.40;;;1.25;;
13445;SDS011;6795;51.232;3.764;2023-08-07T20:00:33;3.22;;;1.10;;
13445;SDS011;6795;51.232;3.764;2023-08-07T20:03:49;5.30;;;1.55;;
13445;SDS011;6795;51.232;3.764;2023-08-07T20:10:50;4.32;;;0.90;;
13445;SDS011;6795;51.232;3.764;2023-08-07T20:14:18;2.83;;;1.02;;
13445;SDS011;6795;51.232;3.764;2023-08-07T20:17:38;1.98;;;0.77;;
13445;SDS011;6795;51.232;3.764;2023-08-07T20:24:42;3.05;;;1.23;;
13445;SDS011;6795;51.232;3.764;2023-08-07T20:28:08;1.95;;;0.88;;
13445;SDS011;6795;51.232;3.764;2023-08-07T20:31:10;2.58;;;0.95;;
13445;SDS011;6795;51.232;3.764;2023-08-07T20:34:27;2.72;;;0.80;;
13445;SDS011;6795;51.232;3.764;2023-08-07T20:45:41;2.45;;;1.55;;
13445;SDS011;6795;51.232;3.764;2023-08-07T20:48:55;8.43;;;1.10;;
13445;SDS011;6795;51.232;3.764;2023-08-07T20:52:03;4.70;;;1.30;;
13445;SDS011;6795;51.232;3.764;2023-08-07T20:55:05;2.70;;;1.05;;
13445;SDS011;6795;51.232;3.764;2023-08-07T20:58:56;3.83;;;1.20;;
13445;SDS011;6795;51.232;3.764;2023-08-07T21:02:03;1.90;;;0.98;;
13445;SDS011;6795;51.232;3.764;2023-08-07T21:05:08;3.08;;;1.42;;
13445;SDS011;6795;51.232;3.764;2023-08-07T21:09:42;4.72;;;1.27;;
13445;SDS011;6795;51.232;3.764;2023-08-07T21:12:22;5.03;;;0.98;;
13445;SDS011;6795;51.232;3.764;2023-08-07T21:15:44;3.70;;;0.80;;
13445;SDS011;6795;51.232;3.764;2023-08-07T21:22:36;3.55;;;0.90;;
13445;SDS011;6795;51.232;3.764;2023-08-07T21:26:13;5.00;;;0.77;;
13445;SDS011;6795;51.232;3.764;2023-08-07T21:29:38;4.57;;;0.98;;
13445;SDS011;6795;51.232;3.764;2023-08-07T21:40:31;5.07;;;1.52;;
13445;SDS011;6795;51.232;3.764;2023-08-07T21:43:32;2.83;;;1.00;;
13445;SDS011;6795;51.232;3.764;2023-08-07T21:46:53;6.32;;;1.55;;
13445;SDS011;6795;51.232;3.764;2023-08-07T21:49:53;6.78;;;1.73;;
13445;SDS011;6795;51.232;3.764;2023-08-07T21:53:06;7.00;;;1.75;;
13445;SDS011;6795;51.232;3.764;2023-08-07T21:59:56;4.70;;;1.55;;
13445;SDS011;6795;51.232;3.764;2023-08-07T22:06:54;8.55;;;2.03;;
13445;SDS011;6795;51.232;3.764;2023-08-07T22:10:31;6.38;;;1.85;;
13445;SDS011;6795;51.232;3.764;2023-08-07T22:21:17;3.45;;;1.35;;
13445;SDS011;6795;51.232;3.764;2023-08-07T22:24:22;2.35;;;1.17;;
13445;SDS011;6795;51.232;3.764;2023-08-07T22:27:46;5.18;;;1.73;;
13445;SDS011;6795;51.232;3.764;2023-08-07T22:31:26;7.72;;;1.42;;
13445;SDS011;6795;51.232;3.764;2023-08-07T22:34:56;6.25;;;1.63;;
13445;SDS011;6795;51.232;3.764;2023-08-07T22:41:58;2.63;;;1.10;;
13445;SDS011;6795;51.232;3.764;2023-08-07T22:45:18;4.43;;;2.45;;
13445;SDS011;6795;51.232;3.764;2023-08-07T22:48:17;8.43;;;1.80;;
13445;SDS011;6795;51.232;3.764;2023-08-07T22:51:44;7.80;;;1.30;;
13445;SDS011;6795;51.232;3.764;2023-08-07T22:55:05;8.95;;;1.60;;
13445;SDS011;6795;51.232;3.764;2023-08-07T22:58:37;7.20;;;2.20;;
13445;SDS011;6795;51.232;3.764;2023-08-07T23:01:44;5.25;;;1.55;;
13445;SDS011;6795;51.232;3.764;2023-08-07T23:04:56;9.88;;;1.92;;
13445;SDS011;6795;51.232;3.764;2023-08-07T23:08:41;8.85;;;1.35;;
13445;SDS011;6795;51.232;3.764;2023-08-07T23:11:51;7.28;;;2.10;;
13445;SDS011;6795;51.232;3.764;2023-08-07T23:18:22;8.73;;;1.60;;
13445;SDS011;6795;51.232;3.764;2023-08-07T23:21:44;7.38;;;2.20;;
13445;SDS011;6795;51.232;3.764;2023-08-07T23:25:08;9.93;;;1.70;;
13445;SDS011;6795;51.232;3.764;2023-08-07T23:31:52;12.57;;;2.83;;
13445;SDS011;6795;51.232;3.764;2023-08-07T23:35:09;6.95;;;2.20;;
13445;SDS011;6795;51.232;3.764;2023-08-07T23:38:42;7.28;;;2.17;;
13445;SDS011;6795;51.232;3.764;2023-08-07T23:42:01;13.75;;;2.95;;
13445;SDS011;6795;51.232;3.764;2023-08-07T23:45:10;6.43;;;2.60;;
13445;SDS011;6795;51.232;3.764;2023-08-07T23:48:40;14.52;;;3.35;;
13445;SDS011;6795;51.232;3.764;2023-08-07T23:52:12;10.63;;;2.92;;
13445;SDS011;6795;51.232;3.764;2023-08-07T23:55:16;5.93;;;2.17;;
13445;SDS011;6795;51.232;3.764;2023-08-07T23:58:22;7.35;;;3.05;;
